sensor_id;sensor_type;location;lat;lon;timestamp;P1;durP1;ratioP1;P2;durP2;ratioP2
22916;SDS011;11624;53.250;7.456;2023-02-03T00:01:43;7.40;;;1.70;;
22916;SDS011;11624;53.250;7.456;2023-02-03T00:04:11;11.18;;;2.03;;
22916;SDS011;11624;53.250;7.456;2023-02-03T00:06:41;9.50;;;1.92;;
22916;SDS011;11624;53.250;7.456;2023-02-03T00:09:09;10.48;;;2.63;;
22916;SDS011;11624;53.250;7.456;2023-02-03T00:11:37;6.80;;;1.73;;
22916;SDS011;11624;53.250;7.456;2023-02-03T00:14:05;9.30;;;2.03;;
22916;SDS011;11624;53.250;7.456;2023-02-03T00:16:34;10.45;;;2.00;;
22916;SDS011;11624;53.250;7.456;2023-02-03T00:19:02;10.10;;;2.20;;
22916;SDS011;11624;53.250;7.456;2023-02-03T00:21:30;6.53;;;2.08;;
22916;SDS011;11624;53.250;7.456;2023-02-03T00:24:00;11.25;;;2.20;;
22916;SDS011;11624;53.250;7.456;2023-02-03T00:26:28;8.70;;;2.15;;
22916;SDS011;11624;53.250;7.456;2023-02-03T00:28:57;9.75;;;1.85;;
22916;SDS011;11624;53.250;7.456;2023-02-03T00:31:26;12.90;;;2.33;;
22916;SDS011;11624;53.250;7.456;2023-02-03T00:33:54;9.30;;;2.00;;
22916;SDS011;11624;53.250;7.456;2023-02-03T00:36:23;8.90;;;1.73;;
22916;SDS011;11624;53.250;7.456;2023-02-03T00:38:52;6.63;;;1.77;;
22916;SDS011;11624;53.250;7.456;2023-02-03T00:41:22;11.30;;;1.92;;
22916;SDS011;11624;53.250;7.456;2023-02-03T00:43:54;11.35;;;2.75;;
22916;SDS011;11624;53.250;7.456;2023-02-03T00:46:22;12.27;;;2.03;;
22916;SDS011;11624;53.250;7.456;2023-02-03T00:48:50;9.80;;;1.95;;
22916;SDS011;11624;53.250;7.456;2023-02-03T00:51:18;12.75;;;2.28;;
22916;SDS011;11624;53.250;7.456;2023-02-03T00:53:47;10.07;;;2.05;;
22916;SDS011;11624;53.250;7.456;2023-02-03T00:56:15;14.02;;;2.33;;
22916;SDS011;11624;53.250;7.456;2023-02-03T00:58:45;10.02;;;1.90;;
22916;SDS011;11624;53.250;7.456;2023-02-03T01:01:13;9.55;;;2.17;;
22916;SDS011;11624;53.250;7.456;2023-02-03T01:03:41;12.10;;;2.53;;
22916;SDS011;11624;53.250;7.456;2023-02-03T01:06:10;6.20;;;1.90;;
22916;SDS011;11624;53.250;7.456;2023-02-03T01:08:41;9.02;;;2.00;;
22916;SDS011;11624;53.250;7.456;2023-02-03T01:11:11;10.07;;;2.08;;
22916;SDS011;11624;53.250;7.456;2023-02-03T01:13:40;11.82;;;2.17;;
22916;SDS011;11624;53.250;7.456;2023-02-03T01:16:10;11.05;;;2.15;;
22916;SDS011;11624;53.250;7.456;2023-02-03T01:18:40;12.63;;;2.20;;
22916;SDS011;11624;53.250;7.456;2023-02-03T01:21:10;12.30;;;2.35;;
22916;SDS011;11624;53.250;7.456;2023-02-03T01:23:39;13.80;;;2.13;;
22916;SDS011;11624;53.250;7.456;2023-02-03T01:26:08;8.20;;;1.88;;
22916;SDS011;11624;53.250;7.456;2023-02-03T01:28:37;11.35;;;2.20;;
22916;SDS011;11624;53.250;7.456;2023-02-03T01:31:08;8.80;;;2.00;;
22916;SDS011;11624;53.250;7.456;2023-02-03T01:33:39;13.02;;;2.17;;
22916;SDS011;11624;53.250;7.456;2023-02-03T01:36:11;9.68;;;2.30;;
22916;SDS011;11624;53.250;7.456;2023-02-03T01:38:40;10.13;;;1.90;;
22916;SDS011;11624;53.250;7.456;2023-02-03T01:41:08;8.05;;;1.92;;
22916;SDS011;11624;53.250;7.456;2023-02-03T01:43:39;10.93;;;2.17;;
22916;SDS011;11624;53.250;7.456;2023-02-03T01:46:15;9.50;;;2.13;;
22916;SDS011;11624;53.250;7.456;2023-02-03T01:48:51;11.15;;;2.13;;
22916;SDS011;11624;53.250;7.456;2023-02-03T01:51:22;10.32;;;2.00;;
22916;SDS011;11624;53.250;7.456;2023-02-03T01:53:51;13.57;;;2.42;;
22916;SDS011;11624;53.250;7.456;2023-02-03T01:56:20;10.82;;;2.22;;
22916;SDS011;11624;53.250;7.456;2023-02-03T01:58:50;9.38;;;1.83;;
22916;SDS011;11624;53.250;7.456;2023-02-03T02:01:20;9.82;;;1.73;;
22916;SDS011;11624;53.250;7.456;2023-02-03T02:03:49;8.10;;;1.70;;
22916;SDS011;11624;53.250;7.456;2023-02-03T02:06:20;10.65;;;2.50;;
22916;SDS011;11624;53.250;7.456;2023-02-03T02:08:49;9.45;;;2.20;;
22916;SDS011;11624;53.250;7.456;2023-02-03T02:11:18;9.48;;;1.90;;
22916;SDS011;11624;53.250;7.456;2023-02-03T02:13:48;10.18;;;2.63;;
22916;SDS011;11624;53.250;7.456;2023-02-03T02:16:23;10.73;;;2.08;;
22916;SDS011;11624;53.250;7.456;2023-02-03T02:19:01;12.20;;;2.28;;
22916;SDS011;11624;53.250;7.456;2023-02-03T02:24:52;10.20;;;2.30;;
22916;SDS011;11624;53.250;7.456;2023-02-03T02:27:43;11.10;;;1.77;;
22916;SDS011;11624;53.250;7.456;2023-02-03T02:30:34;10.68;;;1.98;;
22916;SDS011;11624;53.250;7.456;2023-02-03T02:33:13;11.32;;;2.20;;
22916;SDS011;11624;53.250;7.456;2023-02-03T02:35:51;19.50;;;2.30;;
22916;SDS011;11624;53.250;7.456;2023-02-03T02:38:25;12.27;;;2.25;;
22916;SDS011;11624;53.250;7.456;2023-02-03T02:41:07;11.93;;;1.95;;
22916;SDS011;11624;53.250;7.456;2023-02-03T02:43:43;9.82;;;1.90;;
22916;SDS011;11624;53.250;7.456;2023-02-03T02:46:16;10.70;;;2.05;;
22916;SDS011;11624;53.250;7.456;2023-02-03T02:48:53;10.18;;;2.17;;
22916;SDS011;11624;53.250;7.456;2023-02-03T02:51:24;14.77;;;2.25;;
22916;SDS011;11624;53.250;7.456;2023-02-03T02:53:55;13.98;;;2.15;;
22916;SDS011;11624;53.250;7.456;2023-02-03T02:56:26;11.40;;;1.88;;
22916;SDS011;11624;53.250;7.456;2023-02-03T02:58:57;10.07;;;2.47;;
22916;SDS011;11624;53.250;7.456;2023-02-03T03:01:28;12.95;;;2.25;;
22916;SDS011;11624;53.250;7.456;2023-02-03T03:03:58;9.85;;;2.17;;
22916;SDS011;11624;53.250;7.456;2023-02-03T03:06:33;11.43;;;2.50;;
22916;SDS011;11624;53.250;7.456;2023-02-03T03:09:05;16.33;;;2.20;;
22916;SDS011;11624;53.250;7.456;2023-02-03T03:11:38;12.50;;;2.22;;
22916;SDS011;11624;53.250;7.456;2023-02-03T03:14:11;12.40;;;2.72;;
22916;SDS011;11624;53.250;7.456;2023-02-03T03:16:43;15.23;;;2.65;;
22916;SDS011;11624;53.250;7.456;2023-02-03T03:19:17;14.98;;;2.65;;
22916;SDS011;11624;53.250;7.456;2023-02-03T03:21:48;11.45;;;2.38;;
22916;SDS011;11624;53.250;7.456;2023-02-03T03:24:21;11.82;;;2.00;;
22916;SDS011;11624;53.250;7.456;2023-02-03T03:26:55;10.57;;;2.53;;
22916;SDS011;11624;53.250;7.456;2023-02-03T03:29:29;15.57;;;2.63;;
22916;SDS011;11624;53.250;7.456;2023-02-03T03:32:00;13.50;;;2.60;;
22916;SDS011;11624;53.250;7.456;2023-02-03T03:34:30;12.82;;;2.40;;
22916;SDS011;11624;53.250;7.456;2023-02-03T03:37:00;15.75;;;2.50;;
22916;SDS011;11624;53.250;7.456;2023-02-03T03:39:34;10.43;;;1.85;;
22916;SDS011;11624;53.250;7.456;2023-02-03T03:42:09;15.32;;;2.58;;
22916;SDS011;11624;53.250;7.456;2023-02-03T03:44:42;14.02;;;2.15;;
22916;SDS011;11624;53.250;7.456;2023-02-03T03:47:15;10.18;;;2.15;;
22916;SDS011;11624;53.250;7.456;2023-02-03T03:49:49;14.30;;;2.50;;
22916;SDS011;11624;53.250;7.456;2023-02-03T03:52:19;8.98;;;2.03;;
22916;SDS011;11624;53.250;7.456;2023-02-03T03:54:49;9.45;;;1.85;;
22916;SDS011;11624;53.250;7.456;2023-02-03T03:57:20;13.20;;;2.45;;
22916;SDS011;11624;53.250;7.456;2023-02-03T03:59:52;15.43;;;2.50;;
22916;SDS011;11624;53.250;7.456;2023-02-03T04:02:21;16.02;;;2.90;;
22916;SDS011;11624;53.250;7.456;2023-02-03T04:04:51;14.00;;;2.40;;
22916;SDS011;11624;53.250;7.456;2023-02-03T04:07:21;16.08;;;2.65;;
22916;SDS011;11624;53.250;7.456;2023-02-03T04:09:49;11.85;;;2.20;;
22916;SDS011;11624;53.250;7.456;2023-02-03T04:12:18;17.17;;;3.10;;
22916;SDS011;11624;53.250;7.456;2023-02-03T04:14:49;14.10;;;2.80;;
22916;SDS011;11624;53.250;7.456;2023-02-03T04:17:18;16.45;;;2.80;;
22916;SDS011;11624;53.250;7.456;2023-02-03T04:19:46;15.23;;;2.25;;
22916;SDS011;11624;53.250;7.456;2023-02-03T04:22:15;14.50;;;2.58;;
22916;SDS011;11624;53.250;7.456;2023-02-03T04:24:43;14.10;;;2.33;;
22916;SDS011;11624;53.250;7.456;2023-02-03T04:27:12;11.55;;;2.33;;
22916;SDS011;11624;53.250;7.456;2023-02-03T04:29:40;16.15;;;2.88;;
22916;SDS011;11624;53.250;7.456;2023-02-03T04:32:08;15.48;;;2.58;;
22916;SDS011;11624;53.250;7.456;2023-02-03T04:34:36;16.40;;;2.38;;
22916;SDS011;11624;53.250;7.456;2023-02-03T04:37:04;14.00;;;2.45;;
22916;SDS011;11624;53.250;7.456;2023-02-03T04:39:33;13.25;;;2.80;;
22916;SDS011;11624;53.250;7.456;2023-02-03T04:42:01;15.65;;;3.00;;
22916;SDS011;11624;53.250;7.456;2023-02-03T04:44:30;19.58;;;3.03;;
22916;SDS011;11624;53.250;7.456;2023-02-03T04:46:58;17.55;;;2.83;;
22916;SDS011;11624;53.250;7.456;2023-02-03T04:49:26;15.02;;;2.40;;
22916;SDS011;11624;53.250;7.456;2023-02-03T04:51:54;13.90;;;2.40;;
22916;SDS011;11624;53.250;7.456;2023-02-03T04:54:22;22.67;;;3.25;;
22916;SDS011;11624;53.250;7.456;2023-02-03T04:56:51;16.90;;;2.55;;
22916;SDS011;11624;53.250;7.456;2023-02-03T04:59:20;11.98;;;2.28;;
22916;SDS011;11624;53.250;7.456;2023-02-03T05:01:48;13.32;;;2.72;;
22916;SDS011;11624;53.250;7.456;2023-02-03T05:04:16;20.15;;;2.55;;
22916;SDS011;11624;53.250;7.456;2023-02-03T05:06:44;16.50;;;2.95;;
22916;SDS011;11624;53.250;7.456;2023-02-03T05:09:12;16.48;;;2.72;;
22916;SDS011;11624;53.250;7.456;2023-02-03T05:11:40;11.27;;;2.40;;
22916;SDS011;11624;53.250;7.456;2023-02-03T05:14:10;18.17;;;2.38;;
22916;SDS011;11624;53.250;7.456;2023-02-03T05:16:38;12.93;;;2.28;;
22916;SDS011;11624;53.250;7.456;2023-02-03T05:19:06;14.80;;;3.05;;
22916;SDS011;11624;53.250;7.456;2023-02-03T05:21:34;14.30;;;2.58;;
22916;SDS011;11624;53.250;7.456;2023-02-03T05:24:02;14.32;;;2.55;;
22916;SDS011;11624;53.250;7.456;2023-02-03T05:26:33;13.25;;;2.50;;
22916;SDS011;11624;53.250;7.456;2023-02-03T05:29:02;12.05;;;2.45;;
22916;SDS011;11624;53.250;7.456;2023-02-03T05:31:31;14.95;;;2.65;;
22916;SDS011;11624;53.250;7.456;2023-02-03T05:34:00;17.33;;;3.15;;
22916;SDS011;11624;53.250;7.456;2023-02-03T05:36:28;11.63;;;2.25;;
22916;SDS011;11624;53.250;7.456;2023-02-03T05:38:56;18.80;;;2.70;;
22916;SDS011;11624;53.250;7.456;2023-02-03T05:41:24;10.00;;;2.05;;
22916;SDS011;11624;53.250;7.456;2023-02-03T05:44:10;14.88;;;2.25;;
22916;SDS011;11624;53.250;7.456;2023-02-03T05:46:39;16.70;;;2.42;;
22916;SDS011;11624;53.250;7.456;2023-02-03T05:49:07;12.40;;;2.20;;
22916;SDS011;11624;53.250;7.456;2023-02-03T05:51:36;10.70;;;2.40;;
22916;SDS011;11624;53.250;7.456;2023-02-03T05:54:04;12.27;;;2.35;;
22916;SDS011;11624;53.250;7.456;2023-02-03T05:56:33;13.52;;;2.90;;
22916;SDS011;11624;53.250;7.456;2023-02-03T05:59:01;13.77;;;2.45;;
22916;SDS011;11624;53.250;7.456;2023-02-03T06:01:29;18.48;;;3.17;;
22916;SDS011;11624;53.250;7.456;2023-02-03T06:03:59;15.98;;;2.90;;
22916;SDS011;11624;53.250;7.456;2023-02-03T06:06:28;14.32;;;2.55;;
22916;SDS011;11624;53.250;7.456;2023-02-03T06:08:59;16.75;;;3.10;;
22916;SDS011;11624;53.250;7.456;2023-02-03T06:11:27;11.73;;;2.25;;
22916;SDS011;11624;53.250;7.456;2023-02-03T06:13:56;11.35;;;2.80;;
22916;SDS011;11624;53.250;7.456;2023-02-03T06:16:25;15.70;;;2.40;;
22916;SDS011;11624;53.250;7.456;2023-02-03T06:18:54;16.98;;;3.45;;
22916;SDS011;11624;53.250;7.456;2023-02-03T06:21:26;17.20;;;3.08;;
22916;SDS011;11624;53.250;7.456;2023-02-03T06:23:54;13.05;;;2.42;;
22916;SDS011;11624;53.250;7.456;2023-02-03T06:26:22;14.90;;;2.67;;
22916;SDS011;11624;53.250;7.456;2023-02-03T06:28:51;13.20;;;2.90;;
22916;SDS011;11624;53.250;7.456;2023-02-03T06:31:19;18.77;;;2.72;;
22916;SDS011;11624;53.250;7.456;2023-02-03T06:33:47;17.75;;;3.35;;
22916;SDS011;11624;53.250;7.456;2023-02-03T06:36:16;18.60;;;2.70;;
22916;SDS011;11624;53.250;7.456;2023-02-03T06:38:45;17.23;;;3.13;;
22916;SDS011;11624;53.250;7.456;2023-02-03T06:41:13;17.38;;;3.30;;
22916;SDS011;11624;53.250;7.456;2023-02-03T06:43:41;16.23;;;3.05;;
22916;SDS011;11624;53.250;7.456;2023-02-03T06:46:09;13.85;;;2.58;;
22916;SDS011;11624;53.250;7.456;2023-02-03T06:48:38;18.17;;;2.72;;
22916;SDS011;11624;53.250;7.456;2023-02-03T06:51:06;17.52;;;2.97;;
22916;SDS011;11624;53.250;7.456;2023-02-03T06:53:34;20.02;;;3.47;;
22916;SDS011;11624;53.250;7.456;2023-02-03T06:56:03;18.90;;;3.47;;
22916;SDS011;11624;53.250;7.456;2023-02-03T06:58:32;16.20;;;2.72;;
22916;SDS011;11624;53.250;7.456;2023-02-03T07:01:00;18.50;;;3.05;;
22916;SDS011;11624;53.250;7.456;2023-02-03T07:03:28;18.83;;;2.58;;
22916;SDS011;11624;53.250;7.456;2023-02-03T07:05:56;18.00;;;3.60;;
22916;SDS011;11624;53.250;7.456;2023-02-03T07:08:24;13.70;;;2.88;;
22916;SDS011;11624;53.250;7.456;2023-02-03T07:10:52;19.60;;;2.72;;
22916;SDS011;11624;53.250;7.456;2023-02-03T07:13:22;15.52;;;3.35;;
22916;SDS011;11624;53.250;7.456;2023-02-03T07:15:51;17.58;;;2.97;;
22916;SDS011;11624;53.250;7.456;2023-02-03T07:18:19;19.13;;;3.40;;
22916;SDS011;11624;53.250;7.456;2023-02-03T07:21:10;24.45;;;4.00;;
22916;SDS011;11624;53.250;7.456;2023-02-03T07:23:38;15.63;;;3.08;;
22916;SDS011;11624;53.250;7.456;2023-02-03T07:26:07;21.10;;;3.20;;
22916;SDS011;11624;53.250;7.456;2023-02-03T07:28:37;23.80;;;3.80;;
22916;SDS011;11624;53.250;7.456;2023-02-03T07:31:06;20.30;;;3.40;;
22916;SDS011;11624;53.250;7.456;2023-02-03T07:33:36;21.38;;;3.35;;
22916;SDS011;11624;53.250;7.456;2023-02-03T07:36:04;19.48;;;3.20;;
22916;SDS011;11624;53.250;7.456;2023-02-03T07:38:33;21.52;;;3.20;;
22916;SDS011;11624;53.250;7.456;2023-02-03T07:41:03;18.95;;;3.80;;
22916;SDS011;11624;53.250;7.456;2023-02-03T07:43:32;21.65;;;3.80;;
22916;SDS011;11624;53.250;7.456;2023-02-03T07:46:01;21.60;;;3.60;;
22916;SDS011;11624;53.250;7.456;2023-02-03T07:48:30;19.25;;;3.28;;
22916;SDS011;11624;53.250;7.456;2023-02-03T07:50:58;18.85;;;3.10;;
22916;SDS011;11624;53.250;7.456;2023-02-03T07:53:26;19.35;;;3.95;;
22916;SDS011;11624;53.250;7.456;2023-02-03T07:55:57;20.00;;;3.70;;
22916;SDS011;11624;53.250;7.456;2023-02-03T07:58:26;19.63;;;3.63;;
22916;SDS011;11624;53.250;7.456;2023-02-03T08:00:54;24.10;;;3.75;;
22916;SDS011;11624;53.250;7.456;2023-02-03T08:03:24;16.90;;;3.17;;
22916;SDS011;11624;53.250;7.456;2023-02-03T08:05:52;17.35;;;3.55;;
22916;SDS011;11624;53.250;7.456;2023-02-03T08:08:20;22.60;;;3.53;;
22916;SDS011;11624;53.250;7.456;2023-02-03T08:10:48;23.25;;;3.88;;
22916;SDS011;11624;53.250;7.456;2023-02-03T08:13:16;25.40;;;4.72;;
22916;SDS011;11624;53.250;7.456;2023-02-03T08:15:45;22.58;;;3.72;;
22916;SDS011;11624;53.250;7.456;2023-02-03T08:18:14;25.42;;;4.38;;
22916;SDS011;11624;53.250;7.456;2023-02-03T08:20:43;32.97;;;4.45;;
22916;SDS011;11624;53.250;7.456;2023-02-03T08:23:12;25.35;;;4.13;;
22916;SDS011;11624;53.250;7.456;2023-02-03T08:25:41;27.02;;;4.00;;
22916;SDS011;11624;53.250;7.456;2023-02-03T08:28:09;23.25;;;3.90;;
22916;SDS011;11624;53.250;7.456;2023-02-03T08:30:37;22.77;;;4.28;;
22916;SDS011;11624;53.250;7.456;2023-02-03T08:33:05;21.13;;;4.10;;
22916;SDS011;11624;53.250;7.456;2023-02-03T08:35:33;31.42;;;4.40;;
22916;SDS011;11624;53.250;7.456;2023-02-03T08:38:03;27.65;;;4.03;;
22916;SDS011;11624;53.250;7.456;2023-02-03T08:40:31;31.40;;;4.45;;
22916;SDS011;11624;53.250;7.456;2023-02-03T08:42:59;27.45;;;4.70;;
22916;SDS011;11624;53.250;7.456;2023-02-03T08:45:27;24.23;;;4.13;;
22916;SDS011;11624;53.250;7.456;2023-02-03T08:47:55;26.00;;;5.10;;
22916;SDS011;11624;53.250;7.456;2023-02-03T08:50:24;34.13;;;5.38;;
22916;SDS011;11624;53.250;7.456;2023-02-03T08:52:52;25.92;;;3.75;;
22916;SDS011;11624;53.250;7.456;2023-02-03T08:55:22;32.72;;;5.32;;
22916;SDS011;11624;53.250;7.456;2023-02-03T08:57:50;22.45;;;4.15;;
22916;SDS011;11624;53.250;7.456;2023-02-03T09:00:18;30.05;;;4.97;;
22916;SDS011;11624;53.250;7.456;2023-02-03T09:02:47;36.42;;;5.63;;
22916;SDS011;11624;53.250;7.456;2023-02-03T09:05:16;27.60;;;4.63;;
22916;SDS011;11624;53.250;7.456;2023-02-03T09:07:44;23.25;;;4.30;;
22916;SDS011;11624;53.250;7.456;2023-02-03T09:10:12;32.45;;;5.05;;
22916;SDS011;11624;53.250;7.456;2023-02-03T09:12:41;33.30;;;5.15;;
22916;SDS011;11624;53.250;7.456;2023-02-03T09:15:09;29.50;;;4.90;;
22916;SDS011;11624;53.250;7.456;2023-02-03T09:17:38;30.98;;;5.60;;
22916;SDS011;11624;53.250;7.456;2023-02-03T09:20:06;27.23;;;4.88;;
22916;SDS011;11624;53.250;7.456;2023-02-03T09:22:35;26.80;;;5.45;;
22916;SDS011;11624;53.250;7.456;2023-02-03T09:25:04;34.05;;;5.45;;
22916;SDS011;11624;53.250;7.456;2023-02-03T09:27:32;40.08;;;8.93;;
22916;SDS011;11624;53.250;7.456;2023-02-03T09:30:02;35.65;;;6.55;;
22916;SDS011;11624;53.250;7.456;2023-02-03T09:32:30;33.88;;;5.85;;
22916;SDS011;11624;53.250;7.456;2023-02-03T09:34:59;42.30;;;6.25;;
22916;SDS011;11624;53.250;7.456;2023-02-03T09:37:28;33.97;;;6.32;;
22916;SDS011;11624;53.250;7.456;2023-02-03T09:39:56;36.17;;;6.00;;
22916;SDS011;11624;53.250;7.456;2023-02-03T09:45:21;29.75;;;5.82;;
22916;SDS011;11624;53.250;7.456;2023-02-03T09:47:52;36.08;;;6.22;;
22916;SDS011;11624;53.250;7.456;2023-02-03T09:50:24;35.88;;;6.70;;
22916;SDS011;11624;53.250;7.456;2023-02-03T09:52:55;35.92;;;6.38;;
22916;SDS011;11624;53.250;7.456;2023-02-03T09:55:29;33.22;;;6.60;;
22916;SDS011;11624;53.250;7.456;2023-02-03T09:58:02;36.45;;;7.13;;
22916;SDS011;11624;53.250;7.456;2023-02-03T10:00:34;31.98;;;6.18;;
22916;SDS011;11624;53.250;7.456;2023-02-03T10:03:10;35.03;;;6.90;;
22916;SDS011;11624;53.250;7.456;2023-02-03T10:14:53;34.92;;;6.72;;
22916;SDS011;11624;53.250;7.456;2023-02-03T10:17:31;35.92;;;6.90;;
22916;SDS011;11624;53.250;7.456;2023-02-03T10:20:04;32.67;;;6.20;;
22916;SDS011;11624;53.250;7.456;2023-02-03T10:22:42;34.05;;;5.47;;
22916;SDS011;11624;53.250;7.456;2023-02-03T10:25:15;37.55;;;5.68;;
22916;SDS011;11624;53.250;7.456;2023-02-03T10:27:50;38.45;;;5.32;;
22916;SDS011;11624;53.250;7.456;2023-02-03T10:30:20;38.70;;;5.80;;
22916;SDS011;11624;53.250;7.456;2023-02-03T10:32:51;32.15;;;5.43;;
22916;SDS011;11624;53.250;7.456;2023-02-03T10:35:23;38.75;;;6.38;;
22916;SDS011;11624;53.250;7.456;2023-02-03T10:37:59;37.60;;;5.78;;
22916;SDS011;11624;53.250;7.456;2023-02-03T10:40:27;34.50;;;5.45;;
22916;SDS011;11624;53.250;7.456;2023-02-03T10:42:56;32.95;;;5.60;;
22916;SDS011;11624;53.250;7.456;2023-02-03T10:45:42;38.17;;;5.90;;
22916;SDS011;11624;53.250;7.456;2023-02-03T10:48:12;32.45;;;6.20;;
22916;SDS011;11624;53.250;7.456;2023-02-03T10:50:45;32.38;;;5.75;;
22916;SDS011;11624;53.250;7.456;2023-02-03T10:53:19;36.95;;;6.22;;
22916;SDS011;11624;53.250;7.456;2023-02-03T10:55:49;36.40;;;6.15;;
22916;SDS011;11624;53.250;7.456;2023-02-03T10:58:27;32.08;;;6.15;;
22916;SDS011;11624;53.250;7.456;2023-02-03T11:00:57;40.50;;;6.22;;
22916;SDS011;11624;53.250;7.456;2023-02-03T11:03:34;29.27;;;6.10;;
22916;SDS011;11624;53.250;7.456;2023-02-03T11:06:03;33.40;;;5.85;;
22916;SDS011;11624;53.250;7.456;2023-02-03T11:08:33;35.75;;;5.60;;
22916;SDS011;11624;53.250;7.456;2023-02-03T11:11:03;36.53;;;5.60;;
22916;SDS011;11624;53.250;7.456;2023-02-03T11:13:34;31.77;;;6.57;;
22916;SDS011;11624;53.250;7.456;2023-02-03T11:16:04;31.73;;;5.68;;
22916;SDS011;11624;53.250;7.456;2023-02-03T11:18:46;30.50;;;6.63;;
22916;SDS011;11624;53.250;7.456;2023-02-03T11:21:20;27.45;;;5.72;;
22916;SDS011;11624;53.250;7.456;2023-02-03T11:23:51;34.53;;;6.15;;
22916;SDS011;11624;53.250;7.456;2023-02-03T11:26:22;36.55;;;5.72;;
22916;SDS011;11624;53.250;7.456;2023-02-03T11:28:54;35.97;;;7.35;;
22916;SDS011;11624;53.250;7.456;2023-02-03T11:31:25;35.15;;;6.97;;
22916;SDS011;11624;53.250;7.456;2023-02-03T11:33:57;33.65;;;6.28;;
22916;SDS011;11624;53.250;7.456;2023-02-03T11:36:31;40.78;;;7.20;;
22916;SDS011;11624;53.250;7.456;2023-02-03T11:39:09;29.20;;;6.13;;
22916;SDS011;11624;53.250;7.456;2023-02-03T11:41:46;35.83;;;6.25;;
22916;SDS011;11624;53.250;7.456;2023-02-03T11:44:16;36.25;;;7.18;;
22916;SDS011;11624;53.250;7.456;2023-02-03T11:46:47;31.88;;;6.43;;
22916;SDS011;11624;53.250;7.456;2023-02-03T11:49:25;34.88;;;6.32;;
22916;SDS011;11624;53.250;7.456;2023-02-03T11:52:18;35.33;;;5.80;;
22916;SDS011;11624;53.250;7.456;2023-02-03T11:55:11;34.67;;;6.38;;
22916;SDS011;11624;53.250;7.456;2023-02-03T11:57:51;34.50;;;5.93;;
22916;SDS011;11624;53.250;7.456;2023-02-03T12:00:29;35.75;;;6.63;;
22916;SDS011;11624;53.250;7.456;2023-02-03T12:06:16;42.78;;;7.03;;
22916;SDS011;11624;53.250;7.456;2023-02-03T12:09:00;40.13;;;5.60;;
22916;SDS011;11624;53.250;7.456;2023-02-03T12:11:44;39.67;;;6.65;;
22916;SDS011;11624;53.250;7.456;2023-02-03T12:14:48;36.65;;;6.85;;
22916;SDS011;11624;53.250;7.456;2023-02-03T12:17:25;37.90;;;6.93;;
22916;SDS011;11624;53.250;7.456;2023-02-03T12:20:24;26.95;;;6.18;;
22916;SDS011;11624;53.250;7.456;2023-02-03T12:23:05;32.58;;;5.55;;
22916;SDS011;11624;53.250;7.456;2023-02-03T12:25:43;38.58;;;6.47;;
22916;SDS011;11624;53.250;7.456;2023-02-03T12:28:28;31.63;;;5.75;;
22916;SDS011;11624;53.250;7.456;2023-02-03T12:31:10;31.77;;;5.45;;
22916;SDS011;11624;53.250;7.456;2023-02-03T12:33:45;38.33;;;5.63;;
22916;SDS011;11624;53.250;7.456;2023-02-03T12:36:17;30.20;;;5.63;;
22916;SDS011;11624;53.250;7.456;2023-02-03T12:38:51;35.50;;;6.50;;
22916;SDS011;11624;53.250;7.456;2023-02-03T12:41:23;38.65;;;5.68;;
22916;SDS011;11624;53.250;7.456;2023-02-03T12:43:56;41.80;;;7.60;;
22916;SDS011;11624;53.250;7.456;2023-02-03T12:46:28;37.25;;;6.47;;
22916;SDS011;11624;53.250;7.456;2023-02-03T12:48:59;30.85;;;6.00;;
22916;SDS011;11624;53.250;7.456;2023-02-03T12:51:33;29.77;;;4.97;;
22916;SDS011;11624;53.250;7.456;2023-02-03T12:54:12;33.00;;;6.28;;
22916;SDS011;11624;53.250;7.456;2023-02-03T12:56:59;34.65;;;5.65;;
22916;SDS011;11624;53.250;7.456;2023-02-03T12:59:34;31.33;;;4.88;;
22916;SDS011;11624;53.250;7.456;2023-02-03T13:02:09;27.55;;;5.10;;
22916;SDS011;11624;53.250;7.456;2023-02-03T13:04:44;34.42;;;5.32;;
22916;SDS011;11624;53.250;7.456;2023-02-03T13:07:18;36.10;;;5.55;;
22916;SDS011;11624;53.250;7.456;2023-02-03T13:09:54;35.78;;;5.82;;
22916;SDS011;11624;53.250;7.456;2023-02-03T13:12:29;34.20;;;5.93;;
22916;SDS011;11624;53.250;7.456;2023-02-03T13:15:02;41.22;;;6.15;;
22916;SDS011;11624;53.250;7.456;2023-02-03T13:17:42;33.35;;;5.15;;
22916;SDS011;11624;53.250;7.456;2023-02-03T13:20:16;38.45;;;5.85;;
22916;SDS011;11624;53.250;7.456;2023-02-03T13:22:47;32.28;;;6.22;;
22916;SDS011;11624;53.250;7.456;2023-02-03T13:25:21;35.72;;;5.97;;
22916;SDS011;11624;53.250;7.456;2023-02-03T13:27:56;34.38;;;5.72;;
22916;SDS011;11624;53.250;7.456;2023-02-03T13:30:36;34.33;;;5.38;;
22916;SDS011;11624;53.250;7.456;2023-02-03T13:33:26;25.23;;;4.85;;
22916;SDS011;11624;53.250;7.456;2023-02-03T13:36:19;28.08;;;5.10;;
22916;SDS011;11624;53.250;7.456;2023-02-03T13:39:11;27.95;;;5.15;;
22916;SDS011;11624;53.250;7.456;2023-02-03T13:41:52;27.55;;;4.90;;
22916;SDS011;11624;53.250;7.456;2023-02-03T13:44:23;27.80;;;5.25;;
22916;SDS011;11624;53.250;7.456;2023-02-03T13:46:54;31.63;;;5.60;;
22916;SDS011;11624;53.250;7.456;2023-02-03T13:49:25;29.42;;;5.90;;
22916;SDS011;11624;53.250;7.456;2023-02-03T13:51:56;35.92;;;5.90;;
22916;SDS011;11624;53.250;7.456;2023-02-03T13:54:26;35.65;;;5.63;;
22916;SDS011;11624;53.250;7.456;2023-02-03T13:56:59;37.42;;;6.32;;
22916;SDS011;11624;53.250;7.456;2023-02-03T13:59:37;38.72;;;6.88;;
22916;SDS011;11624;53.250;7.456;2023-02-03T14:11:43;38.33;;;6.60;;
22916;SDS011;11624;53.250;7.456;2023-02-03T14:20:32;38.85;;;6.22;;
22916;SDS011;11624;53.250;7.456;2023-02-03T14:23:06;44.50;;;7.35;;
22916;SDS011;11624;53.250;7.456;2023-02-03T14:25:40;44.08;;;6.85;;
22916;SDS011;11624;53.250;7.456;2023-02-03T14:28:11;40.50;;;6.55;;
22916;SDS011;11624;53.250;7.456;2023-02-03T14:31:01;29.10;;;6.03;;
22916;SDS011;11624;53.250;7.456;2023-02-03T14:36:50;41.30;;;6.10;;
22916;SDS011;11624;53.250;7.456;2023-02-03T14:45:43;35.72;;;6.38;;
22916;SDS011;11624;53.250;7.456;2023-02-03T14:48:36;38.60;;;6.18;;
22916;SDS011;11624;53.250;7.456;2023-02-03T14:51:34;29.55;;;5.55;;
22916;SDS011;11624;53.250;7.456;2023-02-03T14:54:19;36.08;;;5.80;;
22916;SDS011;11624;53.250;7.456;2023-02-03T14:57:01;32.45;;;4.85;;
22916;SDS011;11624;53.250;7.456;2023-02-03T14:59:46;39.20;;;5.72;;
22916;SDS011;11624;53.250;7.456;2023-02-03T15:02:17;32.83;;;5.80;;
22916;SDS011;11624;53.250;7.456;2023-02-03T15:04:50;37.92;;;5.53;;
22916;SDS011;11624;53.250;7.456;2023-02-03T15:07:35;35.35;;;5.07;;
22916;SDS011;11624;53.250;7.456;2023-02-03T15:10:14;29.80;;;5.18;;
22916;SDS011;11624;53.250;7.456;2023-02-03T15:12:43;31.60;;;5.05;;
22916;SDS011;11624;53.250;7.456;2023-02-03T15:15:20;28.45;;;5.32;;
22916;SDS011;11624;53.250;7.456;2023-02-03T15:17:50;25.42;;;5.25;;
22916;SDS011;11624;53.250;7.456;2023-02-03T15:20:24;35.03;;;4.90;;
22916;SDS011;11624;53.250;7.456;2023-02-03T15:22:55;38.67;;;5.60;;
22916;SDS011;11624;53.250;7.456;2023-02-03T15:25:24;31.88;;;5.85;;
22916;SDS011;11624;53.250;7.456;2023-02-03T15:28:08;37.55;;;6.20;;
22916;SDS011;11624;53.250;7.456;2023-02-03T15:30:37;35.22;;;6.30;;
22916;SDS011;11624;53.250;7.456;2023-02-03T15:33:07;29.63;;;6.18;;
22916;SDS011;11624;53.250;7.456;2023-02-03T15:35:42;34.50;;;6.38;;
22916;SDS011;11624;53.250;7.456;2023-02-03T15:38:14;38.13;;;6.90;;
22916;SDS011;11624;53.250;7.456;2023-02-03T15:40:50;39.25;;;6.63;;
22916;SDS011;11624;53.250;7.456;2023-02-03T15:43:24;33.60;;;6.20;;
22916;SDS011;11624;53.250;7.456;2023-02-03T15:45:58;35.47;;;7.32;;
22916;SDS011;11624;53.250;7.456;2023-02-03T15:48:34;38.90;;;7.72;;